createdAt,value
2018-12-31T00:01:46.824Z,97080.39
2018-12-31T00:04:35.371Z,97080.83
2018-12-31T00:07:45.702Z,97084.41
2018-12-31T00:10:56.013Z,97081.16
2018-12-31T00:13:44.581Z,97080.83
2018-12-31T00:16:33.620Z,97086.08
2018-12-31T00:19:21.792Z,97083.22
2018-12-31T00:22:09.996Z,97076.59
2018-12-31T00:24:58.456Z,97071.18
2018-12-31T00:27:50.813Z,97073.94
2018-12-31T00:30:39.304Z,97086.45
2018-12-31T00:33:28.043Z,97078.44
2018-12-31T00:36:16.414Z,97083.06
2018-12-31T00:39:06.791Z,97097.66
2018-12-31T00:41:56.179Z,97097.55
2018-12-31T00:44:45.195Z,97095.59
2018-12-31T00:47:33.762Z,97092.19
2018-12-31T00:50:22.594Z,97101.79
2018-12-31T00:53:10.651Z,97090.91
2018-12-31T00:55:59.027Z,97090.91
2018-12-31T00:58:48.237Z,97103.88
2018-12-31T01:01:36.636Z,97091.52
2018-12-31T01:04:26.019Z,97095.99
2018-12-31T01:07:14.109Z,97091.95
2018-12-31T01:10:02.424Z,97095.99
2018-12-31T01:12:51.527Z,97101.42
2018-12-31T01:15:39.738Z,97101.98
2018-12-31T01:18:27.719Z,97096.00
2018-12-31T01:21:15.577Z,97092.59
2018-12-31T01:24:04.514Z,97101.86
2018-12-31T01:26:52.940Z,97103.71
2018-12-31T01:29:41.499Z,97103.45
2018-12-31T01:32:29.971Z,97093.62
2018-12-31T01:35:17.633Z,97094.31
2018-12-31T01:38:06.354Z,97094.67
2018-12-31T01:40:55.635Z,97095.17
2018-12-31T01:43:44.391Z,97100.84
2018-12-31T01:46:32.878Z,97101.81
2018-12-31T01:49:21.581Z,97093.39
2018-12-31T01:52:09.968Z,97091.02
2018-12-31T01:54:58.289Z,97087.92
2018-12-31T01:57:47.129Z,97108.47
2018-12-31T02:00:35.399Z,97108.47
2018-12-31T02:03:24.533Z,97100.38
2018-12-31T02:06:13.225Z,97105.83
2018-12-31T02:09:01.972Z,97110.81
2018-12-31T02:11:50.384Z,97110.81
2018-12-31T02:14:39.144Z,97105.05
2018-12-31T02:17:28.034Z,97105.64
2018-12-31T02:20:16.702Z,97104.55
2018-12-31T02:23:04.952Z,97096.16
2018-12-31T02:25:52.965Z,97098.46
2018-12-31T02:28:41.387Z,97092.81
2018-12-31T02:31:29.561Z,97093.27
2018-12-31T02:34:17.941Z,97090.86
2018-12-31T02:37:06.165Z,97091.12
2018-12-31T02:39:54.069Z,97103.20
2018-12-31T02:42:42.834Z,97106.29
2018-12-31T02:45:30.773Z,97101.89
2018-12-31T02:48:19.135Z,97091.69
2018-12-31T02:51:08.154Z,97090.86
2018-12-31T02:53:56.386Z,97085.77
2018-12-31T02:56:45.344Z,97073.98
2018-12-31T02:59:34.587Z,97066.47
2018-12-31T03:02:23.637Z,97071.70
2018-12-31T03:05:12.697Z,97056.75
2018-12-31T03:08:01.375Z,97055.36
2018-12-31T03:10:49.461Z,97059.36
2018-12-31T03:13:39.138Z,97059.36
2018-12-31T03:16:27.787Z,97061.77
2018-12-31T03:19:16.650Z,97057.50
2018-12-31T03:22:05.069Z,97061.05
2018-12-31T03:24:53.676Z,97049.42
2018-12-31T03:27:42.561Z,97054.86
2018-12-31T03:30:30.918Z,97054.33
2018-12-31T03:33:18.912Z,97052.94
2018-12-31T03:36:07.569Z,97050.07
2018-12-31T03:38:56.636Z,97047.96
2018-12-31T03:41:44.758Z,97037.97
2018-12-31T03:44:34.019Z,97042.29
2018-12-31T03:47:23.017Z,97054.42
2018-12-31T03:50:11.965Z,97054.42
2018-12-31T03:53:00.921Z,97055.86
2018-12-31T03:55:49.872Z,97056.05
2018-12-31T03:58:38.786Z,97046.91
2018-12-31T04:01:27.430Z,97046.73
2018-12-31T04:04:16.089Z,97042.73
2018-12-31T04:07:04.789Z,97044.45
2018-12-31T04:09:53.373Z,97040.47
2018-12-31T04:12:41.852Z,97034.14
2018-12-31T04:15:29.952Z,97035.37
2018-12-31T04:18:18.276Z,97022.95
2018-12-31T04:21:06.942Z,97021.03
2018-12-31T04:23:55.918Z,97021.42
2018-12-31T04:26:44.446Z,97011.93
2018-12-31T04:29:33.077Z,97021.39
2018-12-31T04:32:21.832Z,97018.73
2018-12-31T04:35:10.130Z,97027.48
2018-12-31T04:37:58.594Z,97030.85
2018-12-31T04:40:46.489Z,97026.58
2018-12-31T04:43:35.173Z,97030.59
2018-12-31T04:46:23.520Z,97029.36
2018-12-31T04:49:11.866Z,97027.14
2018-12-31T04:51:59.908Z,97020.16
2018-12-31T04:54:48.289Z,97017.83
2018-12-31T04:57:37.127Z,97017.64
2018-12-31T05:00:25.302Z,97020.67
2018-12-31T05:03:14.052Z,97016.04
2018-12-31T05:06:03.022Z,97018.92
2018-12-31T05:08:51.153Z,97006.94
2018-12-31T05:11:39.405Z,97009.72
2018-12-31T05:14:28.173Z,97006.53
2018-12-31T05:17:16.679Z,97014.44
2018-12-31T05:20:05.545Z,97022.58
2018-12-31T05:22:53.872Z,97018.41
2018-12-31T05:25:43.355Z,97022.06
2018-12-31T05:28:31.268Z,97029.13
2018-12-31T05:31:19.714Z,97026.78
2018-12-31T05:34:08.814Z,97024.83
2018-12-31T05:36:57.495Z,97026.13
2018-12-31T05:39:45.727Z,97032.52
2018-12-31T05:42:33.631Z,97040.48
2018-12-31T05:45:22.360Z,97047.78
2018-12-31T05:48:10.816Z,97037.36
2018-12-31T05:50:59.013Z,97045.28
2018-12-31T05:53:46.607Z,97051.38
2018-12-31T05:56:35.739Z,97049.92
2018-12-31T05:59:23.927Z,97048.12
2018-12-31T06:02:12.097Z,97050.70
2018-12-31T06:05:00.551Z,97051.78
2018-12-31T06:07:50.087Z,97061.34
2018-12-31T06:10:39.281Z,97068.44
2018-12-31T06:13:27.371Z,97067.05
2018-12-31T06:16:15.971Z,97066.23
2018-12-31T06:19:04.273Z,97058.41
2018-12-31T06:21:53.294Z,97056.92
2018-12-31T06:24:41.799Z,97049.56
2018-12-31T06:27:30.154Z,97053.38
2018-12-31T06:30:18.091Z,97061.26
2018-12-31T06:33:06.165Z,97064.58
2018-12-31T06:35:54.732Z,97067.22
2018-12-31T06:38:43.840Z,97068.77
2018-12-31T06:41:32.071Z,97062.39
2018-12-31T06:44:20.019Z,97075.86
2018-12-31T06:47:08.653Z,97065.02
2018-12-31T06:49:56.708Z,97066.86
2018-12-31T06:52:45.207Z,97067.69
2018-12-31T06:55:33.312Z,97063.47
2018-12-31T06:58:21.600Z,97075.50
2018-12-31T07:01:09.983Z,97071.01
2018-12-31T07:03:58.152Z,97079.08
2018-12-31T07:06:46.396Z,97090.14
2018-12-31T07:09:34.567Z,97099.41
2018-12-31T07:12:23.070Z,97092.70
2018-12-31T07:15:10.714Z,97095.50
2018-12-31T07:17:58.658Z,97089.64
2018-12-31T07:20:47.363Z,97089.13
2018-12-31T07:23:36.213Z,97089.89
2018-12-31T07:26:24.078Z,97088.08
2018-12-31T07:29:12.515Z,97090.30
2018-12-31T07:32:01.400Z,97085.14
2018-12-31T07:34:50.514Z,97088.61
2018-12-31T07:37:38.905Z,97097.86
2018-12-31T07:40:27.214Z,97102.89
2018-12-31T07:43:15.893Z,97108.60
2018-12-31T07:46:04.479Z,97106.86
2018-12-31T07:48:52.821Z,97101.27
2018-12-31T07:51:42.032Z,97097.70
2018-12-31T07:54:30.895Z,97097.77
2018-12-31T07:57:18.917Z,97107.22
2018-12-31T08:00:08.074Z,97110.97
2018-12-31T08:02:56.932Z,97103.50
2018-12-31T08:05:46.303Z,97104.54
2018-12-31T08:08:35.242Z,97103.72
2018-12-31T08:11:24.315Z,97106.61
2018-12-31T08:14:12.771Z,97110.14
2018-12-31T08:17:01.271Z,97115.24
2018-12-31T08:19:50.849Z,97103.66
2018-12-31T08:22:39.741Z,97104.38
2018-12-31T08:25:28.675Z,97098.22
2018-12-31T08:28:20.589Z,97094.78
2018-12-31T08:31:09.430Z,97095.66
2018-12-31T08:34:00.025Z,97102.13
2018-12-31T08:36:48.441Z,97102.89
2018-12-31T08:39:37.006Z,97099.88
2018-12-31T08:42:25.726Z,97110.97
2018-12-31T08:45:14.177Z,97114.46
2018-12-31T08:48:03.003Z,97120.22
2018-12-31T08:50:51.473Z,97119.92
2018-12-31T08:53:39.916Z,97109.42
2018-12-31T08:56:28.588Z,97109.68
2018-12-31T08:59:18.306Z,97119.66
2018-12-31T09:02:06.576Z,97121.41
2018-12-31T09:04:55.398Z,97124.89
2018-12-31T09:07:43.632Z,97129.58
2018-12-31T09:10:32.144Z,97127.36
2018-12-31T09:13:22.024Z,97125.61
2018-12-31T09:16:10.981Z,97128.55
2018-12-31T09:19:00.195Z,97121.91
2018-12-31T09:21:49.025Z,97124.80
2018-12-31T09:24:44.513Z,97120.89
2018-12-31T09:27:27.878Z,97118.68
2018-12-31T09:30:16.526Z,97115.91
2018-12-31T09:33:05.561Z,97112.86
2018-12-31T09:35:54.145Z,97113.27
2018-12-31T09:38:43.300Z,97108.70
2018-12-31T09:41:32.364Z,97109.11
2018-12-31T09:44:21.389Z,97121.39
2018-12-31T09:47:09.769Z,97128.86
2018-12-31T09:49:58.154Z,97120.20
2018-12-31T09:52:48.084Z,97120.92
2018-12-31T09:55:36.361Z,97111.72
2018-12-31T09:58:24.617Z,97110.73
2018-12-31T10:01:13.112Z,97106.57
2018-12-31T10:04:01.211Z,97103.62
2018-12-31T10:06:49.130Z,97098.83
2018-12-31T10:09:37.589Z,97092.66
2018-12-31T10:12:25.732Z,97102.69
2018-12-31T10:15:14.855Z,97104.43
2018-12-31T10:18:03.328Z,97104.72
2018-12-31T10:20:52.360Z,97107.95
2018-12-31T10:23:41.195Z,97099.05
2018-12-31T10:26:30.001Z,97085.61
2018-12-31T10:29:18.346Z,97084.39
2018-12-31T10:32:06.401Z,97081.75
2018-12-31T10:34:54.561Z,97087.58
2018-12-31T10:37:43.851Z,97087.89
2018-12-31T10:40:32.230Z,97099.37
2018-12-31T10:43:20.875Z,97094.88
2018-12-31T10:46:09.203Z,97099.81
2018-12-31T10:48:57.708Z,97095.30
2018-12-31T10:51:46.060Z,97095.30
2018-12-31T10:54:34.926Z,97086.11
2018-12-31T10:57:23.412Z,97081.78
2018-12-31T11:00:12.772Z,97077.70
2018-12-31T11:03:01.319Z,97075.59
2018-12-31T11:05:49.210Z,97076.99
2018-12-31T11:08:38.139Z,97077.27
2018-12-31T11:11:26.653Z,97072.78
2018-12-31T11:14:15.376Z,97079.89
2018-12-31T11:17:03.526Z,97070.38
2018-12-31T11:19:52.101Z,97065.77
2018-12-31T11:22:40.245Z,97070.91
2018-12-31T11:25:29.381Z,97074.28
2018-12-31T11:28:18.006Z,97069.98
2018-12-31T11:31:06.953Z,97048.84
2018-12-31T11:33:55.493Z,97056.02
2018-12-31T11:36:44.233Z,97048.63
2018-12-31T11:39:37.002Z,97038.44
2018-12-31T11:42:25.561Z,97041.97
2018-12-31T11:45:14.464Z,97039.16
2018-12-31T11:48:05.111Z,97040.45
2018-12-31T11:50:54.816Z,97037.73
2018-12-31T11:53:43.187Z,97021.10
2018-12-31T11:56:31.690Z,97021.10
2018-12-31T11:59:21.465Z,97018.83
2018-12-31T12:02:10.704Z,97009.67
2018-12-31T12:04:59.146Z,97010.09
2018-12-31T12:07:48.019Z,97009.16
2018-12-31T12:10:36.510Z,97019.20
2018-12-31T12:13:25.652Z,97019.20
2018-12-31T12:16:14.723Z,97023.48
2018-12-31T12:19:02.748Z,97032.32
2018-12-31T12:21:51.060Z,97029.23
2018-12-31T12:24:40.705Z,97025.73
2018-12-31T12:27:30.822Z,97025.73
2018-12-31T12:30:20.255Z,97023.20
2018-12-31T12:33:09.438Z,97023.20
2018-12-31T12:35:57.387Z,97024.55
2018-12-31T12:38:45.793Z,97013.37
2018-12-31T12:41:35.072Z,97013.91
2018-12-31T12:44:23.771Z,97013.91
2018-12-31T12:47:13.151Z,97019.23
2018-12-31T12:50:02.188Z,97011.11
2018-12-31T12:52:50.185Z,97014.60
2018-12-31T12:55:38.419Z,97014.60
2018-12-31T12:58:26.423Z,97015.92
2018-12-31T13:01:15.260Z,97012.05
2018-12-31T13:04:04.003Z,97021.81
2018-12-31T13:06:52.548Z,97017.84
2018-12-31T13:09:41.831Z,97017.84
2018-12-31T13:12:32.325Z,97005.84
2018-12-31T13:15:21.531Z,97008.11
2018-12-31T13:18:10.503Z,97006.49
2018-12-31T13:20:59.545Z,97006.49
2018-12-31T13:23:48.118Z,97011.59
2018-12-31T13:26:43.414Z,97011.59
2018-12-31T13:29:33.506Z,97028.26
2018-12-31T13:32:22.547Z,97009.34
2018-12-31T13:35:10.449Z,97014.21
2018-12-31T13:37:58.296Z,97015.02
2018-12-31T13:40:47.224Z,97022.05
2018-12-31T13:43:43.917Z,97017.02
2018-12-31T13:46:32.624Z,97017.02
2018-12-31T13:49:21.908Z,97026.98
2018-12-31T13:52:10.606Z,97030.09
2018-12-31T13:54:58.877Z,97021.70
2018-12-31T13:57:47.187Z,97026.98
2018-12-31T14:00:35.532Z,97023.02
2018-12-31T14:03:23.444Z,97009.35
2018-12-31T14:06:12.574Z,97024.81
2018-12-31T14:09:01.262Z,97023.99
2018-12-31T14:11:49.875Z,97025.39
2018-12-31T14:14:38.852Z,97029.14
2018-12-31T14:17:27.742Z,97027.86
2018-12-31T14:20:15.999Z,97033.83
2018-12-31T14:23:04.727Z,97043.03
2018-12-31T14:25:53.679Z,97036.77
2018-12-31T14:28:41.940Z,97041.56
2018-12-31T14:31:30.176Z,97046.25
2018-12-31T14:34:18.472Z,97050.80
2018-12-31T14:37:06.113Z,97052.94
2018-12-31T14:39:54.778Z,97062.38
2018-12-31T14:42:43.365Z,97055.98
2018-12-31T14:45:32.609Z,97053.87
2018-12-31T14:48:21.596Z,97054.22
2018-12-31T14:51:10.732Z,97047.31
2018-12-31T14:53:59.725Z,97062.82
2018-12-31T14:56:48.138Z,97047.86
2018-12-31T14:59:36.091Z,97061.06
2018-12-31T15:02:24.091Z,97051.84
2018-12-31T15:05:12.105Z,97049.26
2018-12-31T15:08:00.338Z,97049.26
2018-12-31T15:10:48.330Z,97062.27
2018-12-31T15:13:37.841Z,97067.81
2018-12-31T15:16:26.276Z,97067.75
2018-12-31T15:19:18.685Z,97068.34
2018-12-31T15:22:07.154Z,97067.23
2018-12-31T15:24:55.630Z,97070.92
2018-12-31T15:27:43.895Z,97066.20
2018-12-31T15:30:32.709Z,97066.77
2018-12-31T15:33:21.671Z,97077.44
2018-12-31T15:36:10.319Z,97081.02
2018-12-31T15:38:58.183Z,97074.48
2018-12-31T15:41:46.917Z,97082.99
2018-12-31T15:44:35.772Z,97082.64
2018-12-31T15:47:24.379Z,97082.22
2018-12-31T15:50:12.555Z,97085.64
2018-12-31T15:53:01.355Z,97082.06
2018-12-31T15:55:49.499Z,97078.41
2018-12-31T15:58:38.017Z,97074.74
2018-12-31T16:01:27.394Z,97082.01
2018-12-31T16:04:15.701Z,97082.11
2018-12-31T16:07:04.481Z,97082.11
2018-12-31T16:09:53.741Z,97078.70
2018-12-31T16:12:42.922Z,97095.51
2018-12-31T16:15:32.093Z,97099.50
2018-12-31T16:18:20.741Z,97100.98
2018-12-31T16:21:09.191Z,97102.45
2018-12-31T16:23:57.886Z,97105.14
2018-12-31T16:26:46.869Z,97102.73
2018-12-31T16:29:35.222Z,97106.84
2018-12-31T16:32:24.651Z,97098.88
2018-12-31T16:35:13.786Z,97104.03
2018-12-31T16:38:02.663Z,97106.61
2018-12-31T16:40:51.311Z,97106.86
2018-12-31T16:43:40.265Z,97099.83
2018-12-31T16:46:28.536Z,97108.39
2018-12-31T16:49:18.156Z,97108.39
2018-12-31T16:52:07.238Z,97113.95
2018-12-31T16:54:56.186Z,97102.19
2018-12-31T16:57:44.173Z,97102.71
2018-12-31T17:00:34.570Z,97103.30
2018-12-31T17:03:25.674Z,97091.92
2018-12-31T17:06:14.444Z,97094.20
2018-12-31T17:09:03.417Z,97100.31
2018-12-31T17:11:52.045Z,97084.13
2018-12-31T17:14:40.315Z,97093.62
2018-12-31T17:17:28.479Z,97104.87
2018-12-31T17:20:16.580Z,97114.61
2018-12-31T17:23:04.732Z,97113.66
2018-12-31T17:25:52.975Z,97111.14
2018-12-31T17:28:41.523Z,97125.51
2018-12-31T17:31:29.750Z,97118.25
2018-12-31T17:34:18.289Z,97116.47
2018-12-31T17:37:07.247Z,97124.34
2018-12-31T17:39:55.659Z,97123.88
2018-12-31T17:42:44.744Z,97122.22
2018-12-31T17:45:33.289Z,97110.16
2018-12-31T17:48:21.952Z,97118.94
2018-12-31T17:51:10.125Z,97112.73
2018-12-31T17:53:58.524Z,97108.63
2018-12-31T17:56:46.787Z,97116.83
2018-12-31T17:59:35.194Z,97116.84
2018-12-31T18:02:23.781Z,97123.41
2018-12-31T18:05:12.922Z,97111.34
2018-12-31T18:08:02.052Z,97119.29
2018-12-31T18:10:51.487Z,97119.06
2018-12-31T18:13:41.090Z,97117.19
2018-12-31T18:16:29.669Z,97121.70
2018-12-31T18:19:18.763Z,97113.73
2018-12-31T18:22:07.553Z,97117.38
2018-12-31T18:24:59.426Z,97118.02
2018-12-31T18:27:48.498Z,97124.11
2018-12-31T18:30:36.516Z,97124.29
2018-12-31T18:33:25.336Z,97130.44
2018-12-31T18:36:13.778Z,97130.22
2018-12-31T18:39:01.763Z,97120.25
2018-12-31T18:41:49.478Z,97123.00
2018-12-31T18:44:37.835Z,97125.38
2018-12-31T18:47:27.010Z,97125.38
2018-12-31T18:50:16.346Z,97131.73
2018-12-31T18:53:05.181Z,97125.11
2018-12-31T18:55:54.322Z,97140.24
2018-12-31T18:58:44.010Z,97139.77
2018-12-31T19:01:34.214Z,97142.22
2018-12-31T19:04:23.063Z,97141.88
2018-12-31T19:07:12.779Z,97138.48
2018-12-31T19:10:01.965Z,97146.09
2018-12-31T19:12:50.543Z,97149.48
2018-12-31T19:15:39.013Z,97149.14
2018-12-31T19:18:28.313Z,97144.63
2018-12-31T19:21:16.876Z,97145.27
2018-12-31T19:24:06.238Z,97145.51
2018-12-31T19:26:54.556Z,97141.42
2018-12-31T19:29:43.733Z,97149.55
2018-12-31T19:32:32.553Z,97161.00
2018-12-31T19:35:21.618Z,97155.52
2018-12-31T19:38:10.161Z,97154.59
2018-12-31T19:40:59.574Z,97155.19
2018-12-31T19:43:48.608Z,97148.73
2018-12-31T19:46:37.007Z,97148.61
2018-12-31T19:49:25.639Z,97152.72
2018-12-31T19:52:13.954Z,97156.83
2018-12-31T19:55:07.109Z,97154.96
2018-12-31T19:57:58.269Z,97159.41
2018-12-31T20:00:48.137Z,97161.92
2018-12-31T20:03:37.085Z,97156.41
2018-12-31T20:06:25.559Z,97154.61
2018-12-31T20:09:14.064Z,97136.53
2018-12-31T20:12:03.274Z,97128.33
2018-12-31T20:14:52.353Z,97132.44
2018-12-31T20:20:21.737Z,97133.65
2018-12-31T20:23:13.020Z,97144.08
2018-12-31T20:26:02.049Z,97132.23
2018-12-31T20:28:50.136Z,97130.83
2018-12-31T20:31:38.672Z,97132.67
2018-12-31T20:34:28.535Z,97137.13
2018-12-31T20:37:17.130Z,97128.44
2018-12-31T20:40:06.733Z,97128.63
2018-12-31T20:42:55.837Z,97129.91
2018-12-31T20:45:44.645Z,97123.22
2018-12-31T20:48:32.789Z,97129.81
2018-12-31T20:51:21.781Z,97129.33
2018-12-31T20:54:10.918Z,97134.79
2018-12-31T20:56:59.191Z,97136.25
2018-12-31T20:59:47.867Z,97138.72
2018-12-31T21:02:36.913Z,97129.92
2018-12-31T21:05:25.479Z,97140.95
2018-12-31T21:08:13.704Z,97141.34
2018-12-31T21:11:02.747Z,97137.71
2018-12-31T21:13:51.114Z,97136.11
2018-12-31T21:16:40.259Z,97131.48
2018-12-31T21:19:29.014Z,97133.79
2018-12-31T21:22:17.311Z,97131.91
2018-12-31T21:25:05.646Z,97131.09
2018-12-31T21:27:53.699Z,97137.34
2018-12-31T21:30:41.911Z,97144.00
2018-12-31T21:33:32.626Z,97145.39
2018-12-31T21:36:21.451Z,97145.63
2018-12-31T21:39:10.296Z,97144.00
2018-12-31T21:41:59.468Z,97132.25
2018-12-31T21:44:48.693Z,97127.22
2018-12-31T21:47:38.088Z,97129.28
2018-12-31T21:50:28.186Z,97135.08
2018-12-31T21:53:16.904Z,97132.61
2018-12-31T21:56:05.573Z,97124.57
2018-12-31T21:58:54.309Z,97126.73
2018-12-31T22:01:42.632Z,97128.38
2018-12-31T22:04:31.709Z,97122.83
2018-12-31T22:07:20.329Z,97103.12
2018-12-31T22:10:08.882Z,97125.34
2018-12-31T22:12:57.455Z,97118.65
2018-12-31T22:15:45.922Z,97115.42
2018-12-31T22:18:34.529Z,97118.13
2018-12-31T22:21:23.318Z,97117.30
2018-12-31T22:24:12.937Z,97120.59
2018-12-31T22:27:02.080Z,97099.79
2018-12-31T22:29:50.386Z,97107.34
2018-12-31T22:32:39.345Z,97101.08
2018-12-31T22:35:27.446Z,97098.15
2018-12-31T22:38:16.772Z,97095.22
2018-12-31T22:41:05.602Z,97095.92
2018-12-31T22:43:54.175Z,97095.92
2018-12-31T22:46:42.523Z,97088.53
2018-12-31T22:49:31.244Z,97092.39
2018-12-31T22:52:20.355Z,97078.62
2018-12-31T22:55:08.670Z,97095.14
2018-12-31T22:57:57.055Z,97087.30
2018-12-31T23:00:45.278Z,97081.20
2018-12-31T23:03:33.817Z,97086.98
2018-12-31T23:06:23.393Z,97084.36
2018-12-31T23:09:14.740Z,97087.92
2018-12-31T23:12:03.709Z,97082.30
2018-12-31T23:14:53.084Z,97079.27
2018-12-31T23:17:41.713Z,97081.97
2018-12-31T23:20:29.622Z,97083.88
2018-12-31T23:23:19.117Z,97088.88
2018-12-31T23:26:08.392Z,97084.77
2018-12-31T23:28:58.720Z,97080.20
2018-12-31T23:31:47.080Z,97077.78
2018-12-31T23:34:35.920Z,97068.30
2018-12-31T23:37:23.822Z,97074.47
2018-12-31T23:40:12.094Z,97069.07
2018-12-31T23:43:06.283Z,97067.67
2018-12-31T23:45:51.214Z,97076.38
2018-12-31T23:48:39.428Z,97068.72
2018-12-31T23:51:27.954Z,97071.89
2018-12-31T23:54:19.951Z,97069.70
2018-12-31T23:57:08.723Z,97081.73
2018-12-31T23:59:57.368Z,97077.39
